createdAt,value
2023-04-08T00:00:22.529Z,55.02
2023-04-08T00:02:24.433Z,54.96
2023-04-08T00:04:26.492Z,55.17
2023-04-08T00:06:28.043Z,54.80
2023-04-08T00:08:29.570Z,54.89
2023-04-08T00:10:31.172Z,54.58
2023-04-08T00:12:33.055Z,54.72
2023-04-08T00:14:34.977Z,54.88
2023-04-08T00:16:36.494Z,54.78
2023-04-08T00:18:38.560Z,54.77
2023-04-08T00:20:40.056Z,54.35
2023-04-08T00:22:41.599Z,54.57
2023-04-08T00:24:43.162Z,54.35
2023-04-08T00:26:44.626Z,54.58
2023-04-08T00:28:46.916Z,54.56
2023-04-08T00:30:48.465Z,54.43
2023-04-08T00:32:50.118Z,54.43
2023-04-08T00:34:51.689Z,54.53
2023-04-08T00:36:53.180Z,54.63
2023-04-08T00:38:54.646Z,55.07
2023-04-08T00:40:56.119Z,54.88
2023-04-08T00:42:58.511Z,55.39
2023-04-08T00:45:00.018Z,54.93
2023-04-08T00:47:01.492Z,55.12
2023-04-08T00:49:03.140Z,54.77
2023-04-08T00:51:04.762Z,55.04
2023-04-08T00:53:06.248Z,55.07
2023-04-08T00:55:07.920Z,55.21
2023-04-08T00:57:09.413Z,55.05
2023-04-08T00:59:10.970Z,55.27
2023-04-08T01:01:17.458Z,55.37
2023-04-08T01:03:21.194Z,55.89
2023-04-08T01:05:25.984Z,56.08
2023-04-08T01:07:28.399Z,56.23
2023-04-08T01:09:30.520Z,56.26
2023-04-08T01:11:33.101Z,56.09
2023-04-08T01:13:36.069Z,56.25
2023-04-08T01:15:39.167Z,56.27
2023-04-08T01:17:41.191Z,55.56
2023-04-08T01:19:44.999Z,55.81
2023-04-08T01:21:46.542Z,55.60
2023-04-08T01:24:02.286Z,55.48
2023-04-08T01:26:03.834Z,56.02
2023-04-08T01:28:12.300Z,56.44
2023-04-08T01:30:13.825Z,56.22
2023-04-08T01:32:15.468Z,55.56
2023-04-08T01:34:17.120Z,55.55
2023-04-08T01:36:18.747Z,55.80
2023-04-08T01:38:20.716Z,56.01
2023-04-08T01:40:22.124Z,55.94
2023-04-08T01:42:24.234Z,56.08
2023-04-08T01:44:26.304Z,55.77
2023-04-08T01:46:27.858Z,55.93
2023-04-08T01:48:29.476Z,56.32
2023-04-08T01:50:31.012Z,56.64
2023-04-08T01:52:32.876Z,56.47
2023-04-08T01:54:38.168Z,56.61
2023-04-08T01:56:40.491Z,56.25
2023-04-08T01:58:42.488Z,56.35
2023-04-08T02:00:44.066Z,56.58
2023-04-08T02:02:47.260Z,56.05
2023-04-08T02:04:49.003Z,55.88
2023-04-08T02:06:50.869Z,55.98
2023-04-08T02:08:52.640Z,55.82
2023-04-08T02:10:54.283Z,55.46
2023-04-08T02:12:55.799Z,54.95
2023-04-08T02:14:57.948Z,55.49
2023-04-08T02:17:06.311Z,57.13
2023-04-08T02:19:12.331Z,59.40
2023-04-08T02:21:14.746Z,59.76
2023-04-08T02:23:18.775Z,60.25
2023-04-08T02:25:22.347Z,61.20
2023-04-08T02:27:24.028Z,61.91
2023-04-08T02:29:25.715Z,62.25
2023-04-08T02:31:27.250Z,62.73
2023-04-08T02:33:28.788Z,62.14
2023-04-08T02:35:30.582Z,61.72
2023-04-08T02:37:32.428Z,62.97
2023-04-08T02:39:33.898Z,64.16
2023-04-08T02:41:35.468Z,64.60
2023-04-08T02:43:36.969Z,64.32
2023-04-08T02:45:39.262Z,64.14
2023-04-08T02:47:40.871Z,63.34
2023-04-08T02:49:42.387Z,61.84
2023-04-08T02:51:43.864Z,63.26
2023-04-08T02:53:45.385Z,64.38
2023-04-08T02:55:46.922Z,64.43
2023-04-08T02:57:49.037Z,64.84
2023-04-08T02:59:50.551Z,65.13
2023-04-08T03:01:52.153Z,64.08
2023-04-08T03:03:53.853Z,63.88
2023-04-08T03:05:56.014Z,64.29
2023-04-08T03:07:58.391Z,63.97
2023-04-08T03:09:59.907Z,63.44
2023-04-08T03:12:02.770Z,63.36
2023-04-08T03:14:04.483Z,63.78
2023-04-08T03:16:06.316Z,63.40
2023-04-08T03:18:07.854Z,63.78
2023-04-08T03:20:09.496Z,63.01
2023-04-08T03:22:11.251Z,62.44
2023-04-08T03:24:12.762Z,62.36
2023-04-08T03:26:14.257Z,61.78
2023-04-08T03:28:15.963Z,60.62
2023-04-08T03:30:17.724Z,60.40
2023-04-08T03:32:19.325Z,59.99
2023-04-08T03:34:20.918Z,59.68
2023-04-08T03:36:22.432Z,59.57
2023-04-08T03:38:23.929Z,59.18
2023-04-08T03:40:25.560Z,58.79
2023-04-08T03:42:27.355Z,58.68
2023-04-08T03:44:28.845Z,58.64
2023-04-08T03:46:30.514Z,59.21
2023-04-08T03:48:32.516Z,59.10
2023-04-08T03:50:34.002Z,59.57
2023-04-08T03:52:35.577Z,59.84
2023-04-08T03:54:37.092Z,59.66
2023-04-08T03:56:38.531Z,59.36
2023-04-08T03:58:40.105Z,59.89
2023-04-08T04:00:41.634Z,59.12
2023-04-08T04:02:43.245Z,58.65
2023-04-08T04:04:44.863Z,58.70
2023-04-08T04:06:46.312Z,58.53
2023-04-08T04:08:48.246Z,58.55
2023-04-08T04:10:49.948Z,58.18
2023-04-08T04:12:51.560Z,57.99
2023-04-08T04:14:53.079Z,58.29
2023-04-08T04:16:54.586Z,58.38
2023-04-08T04:18:56.230Z,58.50
2023-04-08T04:20:57.784Z,58.32
2023-04-08T04:22:59.280Z,58.58
2023-04-08T04:25:00.856Z,58.51
2023-04-08T04:27:02.399Z,58.72
2023-04-08T04:29:03.897Z,59.90
2023-04-08T04:31:05.544Z,60.66
2023-04-08T04:33:07.449Z,61.09
2023-04-08T04:35:12.036Z,62.51
2023-04-08T04:37:13.858Z,62.88
2023-04-08T04:39:15.756Z,64.23
2023-04-08T04:41:17.426Z,64.23
2023-04-08T04:43:18.985Z,63.89
2023-04-08T04:45:20.485Z,64.98
2023-04-08T04:47:22.060Z,64.70
2023-04-08T04:49:23.570Z,65.16
2023-04-08T04:51:25.079Z,65.19
2023-04-08T04:53:26.673Z,65.13
2023-04-08T04:55:28.230Z,64.83
2023-04-08T04:57:29.723Z,64.09
2023-04-08T04:59:31.185Z,62.84
2023-04-08T05:01:32.763Z,61.81
2023-04-08T05:03:34.401Z,61.60
2023-04-08T05:05:36.036Z,60.97
2023-04-08T05:07:37.838Z,60.59
2023-04-08T05:09:39.322Z,59.76
2023-04-08T05:11:40.885Z,59.92
2023-04-08T05:13:42.422Z,59.54
2023-04-08T05:15:45.806Z,59.27
2023-04-08T05:17:47.591Z,59.00
2023-04-08T05:19:49.174Z,59.65
2023-04-08T05:21:50.969Z,59.77
2023-04-08T05:23:53.911Z,60.55
2023-04-08T05:25:55.470Z,61.13
2023-04-08T05:27:57.518Z,60.51
2023-04-08T05:29:59.111Z,61.02
2023-04-08T05:32:00.642Z,60.85
2023-04-08T05:34:02.177Z,60.19
2023-04-08T05:36:03.723Z,60.42
2023-04-08T05:38:05.216Z,59.91
2023-04-08T05:40:06.996Z,60.61
2023-04-08T05:42:08.492Z,61.04
2023-04-08T05:44:10.034Z,60.89
2023-04-08T05:46:11.723Z,60.96
2023-04-08T05:48:13.263Z,61.93
2023-04-08T05:50:14.888Z,60.69
2023-04-08T05:52:16.777Z,60.49
2023-04-08T05:54:18.578Z,59.99
2023-04-08T05:56:20.046Z,60.54
2023-04-08T05:58:21.575Z,60.90
2023-04-08T06:00:23.112Z,61.87
2023-04-08T06:02:24.763Z,62.25
2023-04-08T06:04:26.562Z,62.36
2023-04-08T06:06:28.168Z,62.83
2023-04-08T06:08:29.936Z,62.88
2023-04-08T06:10:31.450Z,62.93
2023-04-08T06:12:35.280Z,63.08
2023-04-08T06:14:36.899Z,63.06
2023-04-08T06:16:38.500Z,62.71
2023-04-08T06:18:39.957Z,61.82
2023-04-08T06:20:41.485Z,61.83
2023-04-08T06:22:43.005Z,61.24
2023-04-08T06:24:44.566Z,61.41
2023-04-08T06:26:46.102Z,60.77
2023-04-08T06:28:47.612Z,60.31
2023-04-08T06:30:49.125Z,58.61
2023-04-08T06:32:50.750Z,58.18
2023-04-08T06:34:52.320Z,57.15
2023-04-08T06:36:53.819Z,57.59
2023-04-08T06:38:55.323Z,57.39
2023-04-08T06:40:56.781Z,57.18
2023-04-08T06:42:58.324Z,56.88
2023-04-08T06:44:59.943Z,55.36
2023-04-08T06:47:01.431Z,54.31
2023-04-08T06:49:04.644Z,55.20
2023-04-08T06:51:07.896Z,54.78
2023-04-08T06:53:09.375Z,54.78
2023-04-08T06:55:11.183Z,55.20
2023-04-08T06:57:12.757Z,55.05
2023-04-08T06:59:14.344Z,54.03
2023-04-08T07:01:16.727Z,54.54
2023-04-08T07:03:18.375Z,54.26
2023-04-08T07:05:19.980Z,54.10
2023-04-08T07:07:21.469Z,54.76
2023-04-08T07:09:23.015Z,53.86
2023-04-08T07:11:24.605Z,55.34
2023-04-08T07:13:26.107Z,54.81
2023-04-08T07:15:27.543Z,54.68
2023-04-08T07:17:29.146Z,54.08
2023-04-08T07:19:31.033Z,54.42
2023-04-08T07:21:32.579Z,53.70
2023-04-08T07:23:34.120Z,53.99
2023-04-08T07:25:35.654Z,53.91
2023-04-08T07:27:37.243Z,53.55
2023-04-08T07:29:38.675Z,53.63
2023-04-08T07:31:40.142Z,53.65
2023-04-08T07:33:41.794Z,53.33
2023-04-08T07:35:43.384Z,53.86
2023-04-08T07:37:44.908Z,54.07
2023-04-08T07:39:46.471Z,53.68
2023-04-08T07:41:47.972Z,54.10
2023-04-08T07:43:49.494Z,54.49
2023-04-08T07:45:51.451Z,54.08
2023-04-08T07:47:53.082Z,54.85
2023-04-08T07:49:54.696Z,56.00
2023-04-08T07:51:56.266Z,56.73
2023-04-08T07:53:58.203Z,56.04
2023-04-08T07:55:59.721Z,56.34
2023-04-08T07:58:01.563Z,55.61
2023-04-08T08:00:04.844Z,54.27
2023-04-08T08:02:06.696Z,55.02
2023-04-08T08:04:08.523Z,54.62
2023-04-08T08:06:11.689Z,54.29
2023-04-08T08:08:13.184Z,54.05
2023-04-08T08:10:14.834Z,54.01
2023-04-08T08:12:16.387Z,54.68
2023-04-08T08:14:17.882Z,54.13
2023-04-08T08:16:19.609Z,55.18
2023-04-08T08:18:21.169Z,54.96
2023-04-08T08:20:22.791Z,55.80
2023-04-08T08:22:24.301Z,56.15
2023-04-08T08:24:26.117Z,55.37
2023-04-08T08:26:28.769Z,55.21
2023-04-08T08:28:30.282Z,55.13
2023-04-08T08:32:33.514Z,54.50
2023-04-08T08:34:34.983Z,54.80
2023-04-08T08:36:36.524Z,55.03
2023-04-08T08:38:38.062Z,54.83
2023-04-08T08:40:39.725Z,54.84
2023-04-08T08:42:41.236Z,55.76
2023-04-08T08:44:42.694Z,54.76
2023-04-08T08:46:44.566Z,55.09
2023-04-08T08:48:46.365Z,55.39
2023-04-08T08:50:47.915Z,55.04
2023-04-08T08:52:50.335Z,54.92
2023-04-08T08:54:58.278Z,54.77
2023-04-08T08:56:59.739Z,54.78
2023-04-08T08:59:01.245Z,54.21
2023-04-08T09:01:02.803Z,54.12
2023-04-08T09:03:16.729Z,54.09
2023-04-08T09:05:18.625Z,54.07
2023-04-08T09:07:20.305Z,53.60
2023-04-08T09:09:21.791Z,53.65
2023-04-08T09:11:23.284Z,53.39
2023-04-08T09:13:25.653Z,52.87
2023-04-08T09:15:27.481Z,52.64
2023-04-08T09:17:33.748Z,51.93
2023-04-08T09:19:35.253Z,51.60
2023-04-08T09:21:36.961Z,52.28
2023-04-08T09:23:41.565Z,52.91
2023-04-08T09:25:43.112Z,52.78
2023-04-08T09:27:44.563Z,51.93
2023-04-08T09:29:46.135Z,51.40
2023-04-08T09:31:47.673Z,51.52
2023-04-08T09:33:54.184Z,50.86
2023-04-08T09:35:55.995Z,51.76
2023-04-08T09:37:57.479Z,52.28
2023-04-08T09:40:17.538Z,52.17
2023-04-08T09:42:18.975Z,51.78
2023-04-08T09:44:22.277Z,51.73
2023-04-08T09:46:28.236Z,51.56
2023-04-08T09:48:30.696Z,51.45
2023-04-08T09:50:32.510Z,50.96
2023-04-08T09:52:34.459Z,49.70
2023-04-08T09:54:36.162Z,50.28
2023-04-08T09:56:41.070Z,51.73
2023-04-08T09:58:47.363Z,53.06
2023-04-08T10:00:51.044Z,52.71
2023-04-08T10:03:08.498Z,52.17
2023-04-08T10:05:10.984Z,51.67
2023-04-08T10:07:13.173Z,50.64
2023-04-08T10:09:14.806Z,51.03
2023-04-08T10:11:16.288Z,51.32
2023-04-08T10:13:17.768Z,51.30
2023-04-08T10:15:25.452Z,50.97
2023-04-08T10:17:36.110Z,50.68
2023-04-08T10:19:41.825Z,49.70
2023-04-08T10:21:48.130Z,50.37
2023-04-08T10:23:59.097Z,50.79
2023-04-08T10:26:01.195Z,52.26
2023-04-08T10:28:23.624Z,52.12
2023-04-08T10:30:28.125Z,51.61
2023-04-08T10:32:30.313Z,50.81
2023-04-08T10:34:31.852Z,49.96
2023-04-08T10:36:33.366Z,49.82
2023-04-08T10:38:34.936Z,50.12
2023-04-08T10:40:39.529Z,50.22
2023-04-08T10:42:41.068Z,49.28
2023-04-08T10:44:44.570Z,49.07
2023-04-08T10:46:46.834Z,48.76
2023-04-08T10:48:59.694Z,48.50
2023-04-08T10:51:02.103Z,48.54
2023-04-08T10:53:03.730Z,48.00
2023-04-08T10:55:05.634Z,48.21
2023-04-08T10:57:07.529Z,48.40
2023-04-08T10:59:09.001Z,47.67
2023-04-08T11:01:10.597Z,47.96
2023-04-08T11:03:14.340Z,47.81
2023-04-08T11:05:17.317Z,47.83
2023-04-08T11:07:20.333Z,48.31
2023-04-08T11:09:21.816Z,48.16
2023-04-08T11:11:23.983Z,48.04
2023-04-08T11:13:25.488Z,47.70
2023-04-08T11:15:27.105Z,47.67
2023-04-08T11:17:29.093Z,47.06
2023-04-08T11:19:30.718Z,47.45
2023-04-08T11:21:32.800Z,47.85
2023-04-08T11:23:34.266Z,47.58
2023-04-08T11:25:35.818Z,47.43
2023-04-08T11:27:37.682Z,47.42
2023-04-08T11:29:39.736Z,47.47
2023-04-08T11:31:41.716Z,47.02
2023-04-08T11:33:47.709Z,46.71
2023-04-08T11:35:51.264Z,47.18
2023-04-08T11:37:52.948Z,46.88
2023-04-08T11:39:57.763Z,46.84
2023-04-08T11:41:59.621Z,46.17
2023-04-08T11:44:01.365Z,46.24
2023-04-08T11:46:12.574Z,45.51
2023-04-08T11:48:15.711Z,45.23
2023-04-08T11:50:26.251Z,45.43
2023-04-08T11:52:46.418Z,44.18
2023-04-08T11:54:47.994Z,44.08
2023-04-08T11:56:49.677Z,44.10
2023-04-08T11:58:51.816Z,44.54
2023-04-08T12:00:53.751Z,44.08
2023-04-08T12:02:55.417Z,44.51
2023-04-08T12:04:57.053Z,44.32
2023-04-08T12:06:58.658Z,44.24
2023-04-08T12:09:00.560Z,44.45
2023-04-08T12:11:16.563Z,45.25
2023-04-08T12:13:21.052Z,45.04
2023-04-08T12:15:22.742Z,45.57
2023-04-08T12:17:24.305Z,44.86
2023-04-08T12:19:25.864Z,44.68
2023-04-08T12:21:28.036Z,44.64
2023-04-08T12:23:29.556Z,44.90
2023-04-08T12:25:31.766Z,44.80
2023-04-08T12:27:33.578Z,44.07
2023-04-08T12:29:35.156Z,44.62
2023-04-08T12:31:36.797Z,45.34
2023-04-08T12:33:38.298Z,46.24
2023-04-08T12:35:39.891Z,46.50
2023-04-08T12:37:41.720Z,46.39
2023-04-08T12:39:43.238Z,45.99
2023-04-08T12:41:44.746Z,46.73
2023-04-08T12:43:46.307Z,46.59
2023-04-08T12:45:48.894Z,46.45
2023-04-08T12:47:50.461Z,46.92
2023-04-08T12:49:52.123Z,46.87
2023-04-08T12:51:53.820Z,46.84
2023-04-08T12:53:55.371Z,46.36
2023-04-08T12:55:57.598Z,46.27
2023-04-08T12:57:59.137Z,46.42
2023-04-08T13:00:00.621Z,46.68
2023-04-08T13:02:02.207Z,47.29
2023-04-08T13:04:03.809Z,48.32
2023-04-08T13:06:05.384Z,48.15
2023-04-08T13:08:06.848Z,47.93
2023-04-08T13:10:08.728Z,48.84
2023-04-08T13:12:12.185Z,50.28
2023-04-08T13:14:13.792Z,50.55
2023-04-08T13:16:15.586Z,51.21
2023-04-08T13:18:17.098Z,51.69
2023-04-08T13:20:18.700Z,52.79
2023-04-08T13:22:20.377Z,52.55
2023-04-08T13:24:21.942Z,51.52
2023-04-08T13:26:24.240Z,50.91
2023-04-08T13:28:25.843Z,51.00
2023-04-08T13:30:27.352Z,50.93
2023-04-08T13:32:28.844Z,49.83
2023-04-08T13:34:30.556Z,50.93
2023-04-08T13:36:32.353Z,52.83
2023-04-08T13:38:33.832Z,52.00
2023-04-08T13:40:35.624Z,51.28
2023-04-08T13:42:37.534Z,50.72
2023-04-08T13:44:39.353Z,48.93
2023-04-08T13:46:40.980Z,49.69
2023-04-08T13:48:42.496Z,49.94
2023-04-08T13:50:44.188Z,49.16
2023-04-08T13:52:45.732Z,48.50
2023-04-08T13:54:47.271Z,48.05
2023-04-08T13:56:49.104Z,48.29
2023-04-08T13:58:56.769Z,47.64
2023-04-08T14:00:59.112Z,48.46
2023-04-08T14:03:00.629Z,46.97
2023-04-08T14:05:02.556Z,46.31
2023-04-08T14:07:04.066Z,48.11
2023-04-08T14:09:05.822Z,48.44
2023-04-08T14:11:07.277Z,48.66
2023-04-08T14:13:08.837Z,49.06
2023-04-08T14:15:29.195Z,49.40
2023-04-08T14:17:31.034Z,49.03
2023-04-08T14:19:32.602Z,50.09
2023-04-08T14:21:34.118Z,49.78
2023-04-08T14:23:35.902Z,50.23
2023-04-08T14:25:37.385Z,50.64
2023-04-08T14:27:50.972Z,51.14
2023-04-08T14:29:58.763Z,51.08
2023-04-08T14:32:00.277Z,51.56
2023-04-08T14:34:02.919Z,50.45
2023-04-08T14:36:04.384Z,50.57
2023-04-08T14:38:05.948Z,50.90
2023-04-08T14:40:07.794Z,50.88
2023-04-08T14:42:09.296Z,51.14
2023-04-08T14:44:10.890Z,50.58
2023-04-08T14:46:12.367Z,50.67
2023-04-08T14:48:13.855Z,49.99
2023-04-08T14:50:16.183Z,50.79
2023-04-08T14:52:17.672Z,50.95
2023-04-08T14:54:19.208Z,51.50
2023-04-08T14:56:21.074Z,52.27
2023-04-08T14:58:23.135Z,52.74
2023-04-08T15:00:24.677Z,53.07
2023-04-08T15:02:26.358Z,52.78
2023-04-08T15:04:28.047Z,53.08
2023-04-08T15:06:30.723Z,53.09
2023-04-08T15:08:32.411Z,52.88
2023-04-08T15:10:33.861Z,53.09
2023-04-08T15:12:36.492Z,52.74
2023-04-08T15:14:37.983Z,52.43
2023-04-08T15:16:39.580Z,53.07
2023-04-08T15:18:41.202Z,52.61
2023-04-08T15:20:42.713Z,52.49
2023-04-08T15:22:44.632Z,52.34
2023-04-08T15:24:47.934Z,52.63
2023-04-08T15:26:49.650Z,52.36
2023-04-08T15:28:52.743Z,52.78
2023-04-08T15:30:54.499Z,52.49
2023-04-08T15:32:57.521Z,52.21
2023-04-08T15:34:59.560Z,52.20
2023-04-08T15:37:02.215Z,52.13
2023-04-08T15:39:03.767Z,52.15
2023-04-08T15:41:05.501Z,52.44
2023-04-08T15:43:10.158Z,51.88
2023-04-08T15:45:11.979Z,52.40
2023-04-08T15:47:13.563Z,52.78
2023-04-08T15:49:15.083Z,53.04
2023-04-08T15:51:16.982Z,53.73
2023-04-08T15:53:18.446Z,54.01
2023-04-08T15:55:19.968Z,54.28
2023-04-08T15:57:26.552Z,54.51
2023-04-08T15:59:31.298Z,55.60
2023-04-08T16:01:33.408Z,56.62
2023-04-08T16:03:35.185Z,57.60
2023-04-08T16:05:39.274Z,57.95
2023-04-08T16:07:42.154Z,58.59
2023-04-08T16:09:43.809Z,59.11
2023-04-08T16:11:45.325Z,59.23
2023-04-08T16:13:47.231Z,59.11
2023-04-08T16:15:48.834Z,58.79
2023-04-08T16:17:51.658Z,57.88
2023-04-08T16:19:53.217Z,57.28
2023-04-08T16:21:54.713Z,57.52
2023-04-08T16:23:56.455Z,57.44
2023-04-08T16:25:57.899Z,57.70
2023-04-08T16:27:59.440Z,57.69
2023-04-08T16:30:01.461Z,57.98
2023-04-08T16:32:03.806Z,57.45
2023-04-08T16:34:05.312Z,58.49
2023-04-08T16:36:07.126Z,59.68
2023-04-08T16:38:08.723Z,60.59
2023-04-08T16:40:10.422Z,60.76
2023-04-08T16:42:12.265Z,61.56
2023-04-08T16:44:14.767Z,61.39
2023-04-08T16:46:16.810Z,60.95
2023-04-08T16:48:18.420Z,61.77
2023-04-08T16:50:19.935Z,63.12
2023-04-08T16:52:21.737Z,63.24
2023-04-08T16:54:23.205Z,62.79
2023-04-08T16:56:24.904Z,62.48
2023-04-08T16:58:26.459Z,61.86
2023-04-08T17:00:28.389Z,61.46
2023-04-08T17:02:29.989Z,61.11
2023-04-08T17:04:31.539Z,61.21
2023-04-08T17:06:35.785Z,61.79
2023-04-08T17:08:37.514Z,61.43
2023-04-08T17:10:39.529Z,61.93
2023-04-08T17:12:41.704Z,62.35
2023-04-08T17:14:43.198Z,63.17
2023-04-08T17:16:44.714Z,64.17
2023-04-08T17:18:46.526Z,64.33
2023-04-08T17:20:48.106Z,64.39
2023-04-08T17:22:50.010Z,64.91
2023-04-08T17:24:54.165Z,64.90
2023-04-08T17:26:57.715Z,64.73
2023-04-08T17:28:59.323Z,64.50
2023-04-08T17:31:01.628Z,64.98
2023-04-08T17:33:03.768Z,65.05
2023-04-08T17:35:05.312Z,65.64
2023-04-08T17:37:07.028Z,65.58
2023-04-08T17:39:08.537Z,65.76
2023-04-08T17:41:13.412Z,65.58
2023-04-08T17:43:16.580Z,65.78
2023-04-08T17:45:18.215Z,66.07
2023-04-08T17:47:21.143Z,66.28
2023-04-08T17:49:22.992Z,66.16
2023-04-08T17:51:24.549Z,65.28
2023-04-08T17:53:26.157Z,65.90
2023-04-08T17:55:27.764Z,65.96
2023-04-08T17:57:29.394Z,66.37
2023-04-08T17:59:31.141Z,66.22
2023-04-08T18:01:32.720Z,66.87
2023-04-08T18:03:34.382Z,68.16
2023-04-08T18:05:36.430Z,68.23
2023-04-08T18:07:37.979Z,68.55
2023-04-08T18:09:40.918Z,68.82
2023-04-08T18:11:42.423Z,68.60
2023-04-08T18:13:44.038Z,69.36
2023-04-08T18:15:46.304Z,70.64
2023-04-08T18:17:47.846Z,71.55
2023-04-08T18:19:49.372Z,72.19
2023-04-08T18:21:51.002Z,71.92
2023-04-08T18:23:52.813Z,71.73
2023-04-08T18:25:54.587Z,72.13
2023-04-08T18:27:56.109Z,72.07
2023-04-08T18:29:57.554Z,72.24
2023-04-08T18:31:59.040Z,72.46
2023-04-08T18:34:00.561Z,72.30
2023-04-08T18:36:12.664Z,72.57
2023-04-08T18:38:14.369Z,72.89
2023-04-08T18:40:15.872Z,71.82
2023-04-08T18:42:17.475Z,71.81
2023-04-08T18:44:19.268Z,71.58
2023-04-08T18:46:20.964Z,72.95
2023-04-08T18:48:22.447Z,72.38
2023-04-08T18:50:23.936Z,71.98
2023-04-08T18:52:25.463Z,70.50
2023-04-08T18:54:27.507Z,70.79
2023-04-08T18:56:29.086Z,71.39
2023-04-08T18:58:31.539Z,72.60
2023-04-08T19:00:33.110Z,72.88
2023-04-08T19:02:35.035Z,73.29
2023-04-08T19:04:38.650Z,72.82
2023-04-08T19:06:40.283Z,72.55
2023-04-08T19:08:41.928Z,71.80
2023-04-08T19:10:43.416Z,71.11
2023-04-08T19:12:45.022Z,70.90
2023-04-08T19:14:46.694Z,70.81
2023-04-08T19:16:48.183Z,70.90
2023-04-08T19:18:49.753Z,71.41
2023-04-08T19:20:51.182Z,71.37
2023-04-08T19:22:52.746Z,72.04
2023-04-08T19:24:55.195Z,72.55
2023-04-08T19:26:56.842Z,72.04
2023-04-08T19:28:58.356Z,71.04
2023-04-08T19:31:00.329Z,70.40
2023-04-08T19:33:01.931Z,69.82
2023-04-08T19:35:03.669Z,70.62
2023-04-08T19:37:06.118Z,71.18
2023-04-08T19:39:07.605Z,71.96
2023-04-08T19:41:09.211Z,71.99
2023-04-08T19:43:10.843Z,72.52
2023-04-08T19:45:12.364Z,73.60
2023-04-08T19:47:14.077Z,73.55
2023-04-08T19:49:15.661Z,73.63
2023-04-08T19:51:19.055Z,73.93
2023-04-08T19:53:20.557Z,74.02
2023-04-08T19:55:22.200Z,73.80
2023-04-08T19:57:24.223Z,73.36
2023-04-08T19:59:26.056Z,73.76
2023-04-08T20:01:27.660Z,73.51
2023-04-08T20:03:29.382Z,73.21
2023-04-08T20:05:31.328Z,73.20
2023-04-08T20:07:32.830Z,73.35
2023-04-08T20:09:34.378Z,74.03
2023-04-08T20:11:36.005Z,74.05
2023-04-08T20:13:37.643Z,74.39
2023-04-08T20:15:39.544Z,74.25
2023-04-08T20:17:41.086Z,74.28
2023-04-08T20:19:42.713Z,73.18
2023-04-08T20:21:44.554Z,73.06
2023-04-08T20:23:46.420Z,72.80
2023-04-08T20:25:48.013Z,72.54
2023-04-08T20:27:51.464Z,72.30
2023-04-08T20:29:53.025Z,72.11
2023-04-08T20:31:54.835Z,72.67
2023-04-08T20:33:56.421Z,72.12
2023-04-08T20:35:57.949Z,71.93
2023-04-08T20:37:59.537Z,72.18
2023-04-08T20:40:01.033Z,72.22
2023-04-08T20:42:02.539Z,72.42
2023-04-08T20:44:06.164Z,72.07
2023-04-08T20:46:08.058Z,71.37
2023-04-08T20:50:28.656Z,71.43
2023-04-08T20:52:30.113Z,71.64
2023-04-08T20:54:31.838Z,71.72
2023-04-08T20:56:33.462Z,72.60
2023-04-08T20:58:34.940Z,72.35
2023-04-08T21:00:36.434Z,72.48
2023-04-08T21:02:38.237Z,72.59
2023-04-08T21:04:39.918Z,71.78
2023-04-08T21:06:42.221Z,72.48
2023-04-08T21:08:43.925Z,72.45
2023-04-08T21:10:45.507Z,72.48
2023-04-08T21:12:47.148Z,71.73
2023-04-08T21:14:50.887Z,71.45
2023-04-08T21:16:52.510Z,70.83
2023-04-08T21:18:54.072Z,71.08
2023-04-08T21:20:55.915Z,70.26
2023-04-08T21:22:59.024Z,70.33
2023-04-08T21:25:02.502Z,70.07
2023-04-08T21:27:04.046Z,70.01
2023-04-08T21:29:05.494Z,70.30
2023-04-08T21:31:10.337Z,69.85
2023-04-08T21:33:11.869Z,70.39
2023-04-08T21:35:13.448Z,70.37
2023-04-08T21:37:15.006Z,70.22
2023-04-08T21:39:16.467Z,70.24
2023-04-08T21:41:18.265Z,69.95
2023-04-08T21:43:19.772Z,70.68
2023-04-08T21:45:21.715Z,71.16
2023-04-08T21:47:23.244Z,71.01
2023-04-08T21:49:25.063Z,70.66
2023-04-08T21:51:26.941Z,71.02
2023-04-08T21:53:28.453Z,69.92
2023-04-08T21:55:30.026Z,70.81
2023-04-08T21:57:31.855Z,70.58
2023-04-08T21:59:33.374Z,70.49
2023-04-08T22:01:35.008Z,70.17
2023-04-08T22:03:36.569Z,70.12
2023-04-08T22:05:38.244Z,69.84
2023-04-08T22:07:39.733Z,69.79
2023-04-08T22:09:41.406Z,69.90
2023-04-08T22:11:42.885Z,69.94
2023-04-08T22:13:44.341Z,69.11
2023-04-08T22:15:45.828Z,69.53
2023-04-08T22:17:47.323Z,69.19
2023-04-08T22:19:48.843Z,69.26
2023-04-08T22:21:51.236Z,68.97
2023-04-08T22:23:52.765Z,69.38
2023-04-08T22:25:54.251Z,69.28
2023-04-08T22:27:56.158Z,69.16
2023-04-08T22:29:57.627Z,69.72
2023-04-08T22:31:59.095Z,68.93
2023-04-08T22:34:00.704Z,69.36
2023-04-08T22:36:02.289Z,70.00
2023-04-08T22:38:03.847Z,69.67
2023-04-08T22:40:05.666Z,69.05
2023-04-08T22:42:07.104Z,70.44
2023-04-08T22:44:08.598Z,70.23
2023-04-08T22:46:10.879Z,70.76
2023-04-08T22:48:12.364Z,71.00
2023-04-08T22:50:13.885Z,71.12
2023-04-08T22:52:15.577Z,71.07
2023-04-08T22:54:18.135Z,71.51
2023-04-08T22:56:19.625Z,71.56
2023-04-08T22:58:21.140Z,72.15
2023-04-08T23:00:22.736Z,72.96
2023-04-08T23:02:24.293Z,73.64
2023-04-08T23:04:26.021Z,73.42
2023-04-08T23:06:28.883Z,73.62
2023-04-08T23:08:30.402Z,74.18
2023-04-08T23:10:31.933Z,73.46
2023-04-08T23:12:33.517Z,73.84
2023-04-08T23:14:34.961Z,73.00
2023-04-08T23:16:36.442Z,72.54
2023-04-08T23:18:37.962Z,72.28
2023-04-08T23:20:39.413Z,72.68
2023-04-08T23:22:41.069Z,72.55
2023-04-08T23:24:42.593Z,71.93
2023-04-08T23:26:44.461Z,71.54
2023-04-08T23:28:46.124Z,71.40
2023-04-08T23:30:47.718Z,71.17
2023-04-08T23:32:49.255Z,71.25
2023-04-08T23:34:50.692Z,71.16
2023-04-08T23:36:52.146Z,70.95
2023-04-08T23:38:53.838Z,71.48
2023-04-08T23:40:55.381Z,70.90
2023-04-08T23:42:56.837Z,71.01
2023-04-08T23:44:58.309Z,71.14
2023-04-08T23:46:59.805Z,71.30
2023-04-08T23:49:01.281Z,70.99
2023-04-08T23:51:02.880Z,70.83
2023-04-08T23:53:04.349Z,71.24
2023-04-08T23:55:06.088Z,70.26
2023-04-08T23:57:07.627Z,70.39
2023-04-08T23:59:09.185Z,70.04
